Time;durP1;ratioP1;P1;durP2;ratioP2;P2;SDS_P1;SDS_P2;PMS_P1;PMS_P2;Temp;Humidity;BMP_temperature;BMP_pressure;BME280_temperature;BME280_humidity;BME280_pressure;Samples;Min_cycle;Max_cycle;Signal;HPM_P1;HPM_P2
2023/06/23 00:02:51;;;;;;;;;17.80;16.80;;;;;26.06;69.73;98601.91;6070323;28;96317;-62
2023/06/23 00:05:56;;;;;;;;;20.00;19.40;;;;;26.05;69.86;98589.22;6069989;28;96403;-62
2023/06/23 00:09:00;;;;;;;;;22.80;20.40;;;;;26.06;69.87;98593.63;6069809;28;96567;-62
2023/06/23 00:12:07;;;;;;;;;19.60;18.60;;;;;26.03;70.89;98579.66;6069843;28;96450;-62
2023/06/23 00:15:13;;;;;;;;;19.25;17.00;;;;;25.96;71.02;98580.16;6069813;28;96444;-62
2023/06/23 00:18:16;;;;;;;;;21.50;19.50;;;;;25.93;71.11;98571.75;6069843;28;96286;-62
2023/06/23 00:21:21;;;;;;;;;18.00;18.00;;;;;25.88;71.62;98562.50;6052345;28;98387;-62
2023/06/23 00:24:24;;;;;;;;;18.20;17.20;;;;;25.86;71.63;98556.47;6068655;28;96552;-62
2023/06/23 00:27:28;;;;;;;;;20.00;17.00;;;;;25.82;72.59;98558.28;6051730;28;96466;-62
2023/06/23 00:30:31;;;;;;;;;18.60;15.60;;;;;25.76;72.60;98559.59;6068270;28;96298;-62
2023/06/23 00:33:35;;;;;;;;;21.00;18.40;;;;;25.75;72.47;98563.53;6052098;28;96344;-62
2023/06/23 00:36:40;;;;;;;;;19.67;18.33;;;;;25.67;73.16;98550.53;6052294;28;96419;-62
2023/06/23 00:39:43;;;;;;;;;23.00;21.00;;;;;25.66;72.93;98553.59;6051993;28;96425;-62
2023/06/23 00:42:52;;;;;;;;;21.00;19.50;;;;;25.63;73.17;98546.00;6050103;28;96787;-62
2023/06/23 00:45:56;;;;;;;;;20.40;20.00;;;;;25.60;73.20;98543.91;6050388;28;97040;-62
2023/06/23 00:49:00;;;;;;;;;18.00;17.00;;;;;25.57;74.12;98548.13;6067450;28;96588;-62
2023/06/23 00:52:07;;;;;;;;;18.00;16.80;;;;;25.56;73.46;98548.47;6050624;28;96210;-62
2023/06/23 00:55:11;;;;;;;;;20.00;19.50;;;;;25.57;73.59;98550.88;6067206;28;96337;-62
2023/06/23 00:58:14;;;;;;;;;20.75;18.25;;;;;25.55;73.72;98547.66;6052072;28;96260;-62
2023/06/23 01:01:18;;;;;;;;;19.00;18.80;;;;;25.48;74.41;98538.19;6069184;28;96406;-60
2023/06/23 01:04:22;;;;;;;;;22.00;20.40;;;;;25.41;74.52;98539.50;6051418;28;96374;-62
2023/06/23 01:07:37;;;;;;;;;18.20;18.00;;;;;25.38;74.64;98544.88;6051186;28;96348;-62
2023/06/23 01:10:47;;;;;;;;;23.00;21.00;;;;;25.38;74.87;98540.16;6051291;28;96499;-62
2023/06/23 01:13:56;;;;;;;;;21.00;20.60;;;;;25.27;74.07;98513.22;6066082;28;97562;-62
2023/06/23 01:17:05;;;;;;;;;20.20;19.00;;;;;25.36;74.64;98527.84;6051619;28;96590;-62
2023/06/23 01:20:20;;;;;;;;;21.75;20.00;;;;;25.34;74.73;98516.31;6051512;28;96517;-62
2023/06/23 01:23:54;;;;;;;;;22.20;19.20;;;;;25.30;74.74;98512.59;6049909;28;96698;-62
2023/06/23 01:27:33;;;;;;;;;22.00;21.00;;;;;25.25;75.10;98508.06;6068545;28;96329;-62
2023/06/23 01:30:44;;;;;;;;;23.00;22.60;;;;;25.24;75.23;98509.19;6048156;28;96558;-62
2023/06/23 01:33:52;;;;;;;;;25.00;23.00;;;;;25.22;75.28;98507.88;6067969;28;96445;-62
2023/06/23 01:37:01;;;;;;;;;23.00;22.00;;;;;25.19;75.91;98494.75;6051130;28;96343;-62
2023/06/23 01:40:10;;;;;;;;;23.00;21.00;;;;;25.20;75.59;98501.88;6068172;28;96899;-62
2023/06/23 01:43:16;;;;;;;;;24.25;22.50;;;;;25.17;75.72;98500.59;6068373;28;96339;-62
2023/06/23 01:46:26;;;;;;;;;23.80;21.00;;;;;25.11;75.73;98503.84;6051074;28;96405;-61
2023/06/23 01:49:36;;;;;;;;;22.00;21.40;;;;;25.09;76.02;98506.94;6051073;28;96647;-62
2023/06/23 01:52:41;;;;;;;;;21.00;21.00;;;;;25.08;76.53;98504.47;6050922;28;97591;-62
2023/06/23 01:55:45;;;;;;;;;20.75;19.00;;;;;25.07;76.37;98494.63;6067631;28;96249;-62
2023/06/23 01:58:51;;;;;;;;;23.50;21.00;;;;;25.02;76.74;98493.63;6050896;28;96388;-62
2023/06/23 02:01:58;;;;;;;;;23.60;23.60;;;;;25.03;76.70;98491.66;6050892;28;96597;-62
2023/06/23 02:05:01;;;;;;;;;22.00;20.60;;;;;25.00;76.90;98484.88;6050760;28;97088;-62
2023/06/23 02:08:06;;;;;;;;;22.40;19.40;;;;;24.96;77.07;98478.41;6067609;28;96755;-62
2023/06/23 02:11:11;;;;;;;;;23.00;21.00;;;;;24.89;77.49;98464.28;6067531;28;96376;-62
2023/06/23 02:14:17;;;;;;;;;22.20;19.00;;;;;24.90;77.41;98454.88;6050523;28;96326;-62
2023/06/23 02:17:23;;;;;;;;;23.40;20.40;;;;;24.87;78.01;98452.78;6066848;28;96308;-61
2023/06/23 02:20:29;;;;;;;;;25.00;23.40;;;;;24.79;78.44;98445.28;6050636;28;96672;-62
2023/06/23 02:23:34;;;;;;;;;25.00;21.00;;;;;24.81;78.19;98451.28;6049813;28;97176;-62
2023/06/23 02:26:40;;;;;;;;;23.50;22.00;;;;;24.81;78.41;98440.25;6067162;28;96314;-62
2023/06/23 02:29:45;;;;;;;;;21.00;21.00;;;;;24.75;78.21;98426.94;6050494;28;96396;-62
2023/06/23 02:32:50;;;;;;;;;20.40;19.40;;;;;24.72;78.36;98417.41;6067242;28;96295;-62
2023/06/23 02:35:57;;;;;;;;;20.00;18.40;;;;;24.78;78.46;98432.63;6033902;28;96753;-62
2023/06/23 02:39:06;;;;;;;;;21.40;20.00;;;;;24.69;78.63;98425.50;6049904;28;96909;-62
2023/06/23 02:42:12;;;;;;;;;23.00;20.00;;;;;24.77;78.54;98441.22;6064015;28;98426;-62
2023/06/23 02:45:20;;;;;;;;;21.00;20.25;;;;;24.78;78.35;98459.38;6050053;28;96303;-62
2023/06/23 02:48:31;;;;;;;;;23.40;21.40;;;;;24.77;78.00;98471.56;6049832;28;96945;-62
2023/06/23 02:51:37;;;;;;;;;22.75;20.50;;;;;24.76;78.45;98468.00;6049988;28;96426;-62
2023/06/23 02:54:48;;;;;;;;;28.00;24.00;;;;;24.75;78.71;98460.84;6066198;28;96655;-61
2023/06/23 02:57:56;;;;;;;;;21.00;21.00;;;;;24.72;79.17;98449.66;6032552;28;98876;-62
2023/06/23 03:01:02;;;;;;;;;25.40;22.40;;;;;24.79;78.87;98458.25;6066364;28;96879;-62
2023/06/23 03:04:07;;;;;;;;;24.00;21.00;;;;;24.62;79.01;98427.94;6049613;28;96286;-62
2023/06/23 03:07:11;;;;;;;;;23.00;22.00;;;;;24.82;79.13;98466.69;6066493;28;96362;-62
2023/06/23 03:10:15;;;;;;;;;28.20;25.00;;;;;24.84;79.23;98464.41;6048416;28;96837;-62
2023/06/23 03:13:19;;;;;;;;;25.00;22.40;;;;;24.89;79.26;98474.50;6048201;28;98414;-61
2023/06/23 03:16:29;;;;;;;;;21.40;20.40;;;;;24.88;79.18;98473.69;6048984;28;97275;-62
2023/06/23 03:19:39;;;;;;;;;25.00;24.00;;;;;24.90;79.49;98473.34;6066064;28;97097;-62
2023/06/23 03:22:48;;;;;;;;;22.00;21.00;;;;;24.94;79.42;98479.84;6048818;28;96424;-62
2023/06/23 03:25:51;;;;;;;;;23.50;21.00;;;;;24.96;79.75;98491.38;6064769;28;96589;-62
2023/06/23 03:28:59;;;;;;;;;23.40;22.60;;;;;24.96;79.26;98511.50;6068270;28;96410;-62
2023/06/23 03:32:05;;;;;;;;;22.75;21.75;;;;;25.01;79.40;98514.09;6070073;28;96538;-62
2023/06/23 03:35:13;;;;;;;;;21.80;20.20;;;;;25.07;79.47;98514.69;6070848;28;96367;-62
2023/06/23 03:38:20;;;;;;;;;24.00;22.00;;;;;25.17;79.19;98522.66;6069932;28;96109;-62
2023/06/23 03:41:27;;;;;;;;;21.00;19.80;;;;;25.27;78.62;98519.56;6052385;28;96336;-62
2023/06/23 03:44:36;;;;;;;;;21.40;20.40;;;;;25.37;78.39;98515.66;6069132;28;96449;-62
2023/06/23 03:47:41;;;;;;;;;19.80;17.00;;;;;25.45;77.29;98520.34;6050289;28;96784;-62
2023/06/23 03:50:50;;;;;;;;;22.40;21.00;;;;;25.49;77.11;98531.53;6068123;28;97009;-62
2023/06/23 03:53:58;;;;;;;;;21.20;20.00;;;;;25.60;77.10;98535.63;6062445;28;96669;-62
2023/06/23 03:57:05;;;;;;;;;23.00;20.00;;;;;25.68;76.10;98543.88;6068315;28;96889;-62
2023/06/23 04:00:11;;;;;;;;;21.80;19.00;;;;;25.74;75.64;98528.75;6055077;28;96523;-62
2023/06/23 04:03:16;;;;;;;;;23.00;19.00;;;;;25.86;75.27;98528.03;6048466;28;98570;-62
2023/06/23 04:06:25;;;;;;;;;26.25;23.00;;;;;25.90;74.71;98514.41;6056966;28;96301;-62
2023/06/23 04:09:32;;;;;;;;;24.00;22.00;;;;;25.95;75.08;98503.19;6063221;28;96247;-62
2023/06/23 04:12:36;;;;;;;;;23.25;20.00;;;;;26.01;75.02;98505.41;6069195;28;96540;-62
2023/06/23 04:15:42;;;;;;;;;22.60;21.00;;;;;26.05;74.35;98513.84;6050481;28;97291;-62
2023/06/23 04:18:47;;;;;;;;;24.00;22.40;;;;;26.07;74.41;98506.03;6068136;28;96388;-62
2023/06/23 04:21:53;;;;;;;;;24.40;22.00;;;;;26.14;74.16;98520.16;6068650;28;96498;-62
2023/06/23 04:24:59;;;;;;;;;26.00;21.20;;;;;26.20;74.11;98505.78;6068730;28;96966;-62
2023/06/23 04:28:05;;;;;;;;;21.00;20.60;;;;;26.33;72.86;98490.16;6052398;28;97718;-62
2023/06/23 04:31:11;;;;;;;;;21.00;20.00;;;;;26.45;72.22;98473.66;6068898;28;96286;-62
2023/06/23 04:34:14;;;;;;;;;24.00;20.60;;;;;26.61;72.60;98479.41;6064215;28;96792;-62
2023/06/23 04:37:24;;;;;;;;;23.80;20.00;;;;;26.78;71.54;98493.06;6069105;28;96780;-62
2023/06/23 04:40:33;;;;;;;;;21.40;19.00;;;;;26.95;70.98;98494.94;6068664;28;96287;-62
2023/06/23 04:43:42;;;;;;;;;24.00;21.00;;;;;27.04;70.33;98490.13;6050017;28;96428;-62
2023/06/23 04:46:49;;;;;;;;;23.00;22.00;;;;;27.12;69.73;98500.34;6064801;28;96316;-62
2023/06/23 04:49:59;;;;;;;;;22.40;21.40;;;;;27.26;69.68;98500.03;6065780;28;96410;-62
2023/06/23 04:53:08;;;;;;;;;26.80;23.00;;;;;27.42;68.89;98496.28;6066258;28;96881;-62
2023/06/23 04:56:15;;;;;;;;;24.60;21.00;;;;;27.52;68.85;98473.72;6068027;28;96487;-62
2023/06/23 04:59:22;;;;;;;;;22.40;21.40;;;;;27.68;68.42;98459.22;6032877;28;96684;-62
2023/06/23 05:02:29;;;;;;;;;22.00;19.25;;;;;27.76;68.38;98466.63;6066078;28;96619;-62
2023/06/23 05:05:34;;;;;;;;;21.00;18.00;;;;;27.95;68.37;98466.88;6066527;28;96633;-62
2023/06/23 05:08:41;;;;;;;;;25.00;22.40;;;;;28.17;67.81;98463.66;6066677;28;96624;-62
2023/06/23 05:11:45;;;;;;;;;20.00;18.60;;;;;28.20;66.31;98460.16;6066695;28;97195;-62
2023/06/23 05:14:50;;;;;;;;;22.50;19.50;;;;;28.47;66.46;98482.78;6068143;28;96880;-62
2023/06/23 05:17:58;;;;;;;;;21.60;20.00;;;;;28.65;65.70;98473.03;6068525;28;96977;-62
2023/06/23 05:21:03;;;;;;;;;19.20;16.80;;;;;28.82;65.61;98468.06;6050986;28;97121;-62
2023/06/23 05:24:09;;;;;;;;;23.20;19.00;;;;;28.91;64.71;98461.56;6067276;28;96107;-62
2023/06/23 05:27:14;;;;;;;;;21.50;19.00;;;;;29.06;64.29;98485.78;6068436;28;96393;-62
2023/06/23 05:30:19;;;;;;;;;23.00;20.00;;;;;29.17;63.93;98493.25;6049940;28;98638;-62
2023/06/23 05:33:25;;;;;;;;;19.60;18.00;;;;;29.26;63.53;98488.38;6067889;28;96425;-62
2023/06/23 05:36:31;;;;;;;;;22.00;20.00;;;;;29.39;63.24;98491.91;6051429;28;96368;-62
2023/06/23 05:39:39;;;;;;;;;23.40;21.00;;;;;29.57;62.62;98492.38;6068211;28;96541;-62
2023/06/23 05:42:43;;;;;;;;;18.00;17.00;;;;;29.70;62.35;98483.63;6068349;28;96486;-62
2023/06/23 05:45:46;;;;;;;;;20.20;19.20;;;;;29.74;61.16;98471.78;6068001;28;96549;-62
2023/06/23 05:48:52;;;;;;;;;20.40;19.40;;;;;29.75;61.09;98451.19;6050623;28;97969;-62
2023/06/23 05:51:59;;;;;;;;;21.40;19.00;;;;;29.88;60.30;98463.81;6048876;28;99892;-62
2023/06/23 05:55:06;;;;;;;;;22.40;19.40;;;;;30.02;59.74;98472.53;6067845;28;96960;-62
2023/06/23 05:58:12;;;;;;;;;23.00;19.00;;;;;30.25;59.74;98461.56;6067230;28;96622;-62
2023/06/23 06:01:19;;;;;;;;;21.00;20.00;;;;;30.36;58.48;98446.72;6067845;28;96384;-62
2023/06/23 06:04:26;;;;;;;;;20.40;19.00;;;;;30.59;58.11;98446.09;6067695;28;97079;-62
2023/06/23 06:07:32;;;;;;;;;22.25;18.00;;;;;30.87;57.98;98438.34;6048626;28;96720;-62
2023/06/23 06:10:39;;;;;;;;;19.67;18.67;;;;;31.03;57.54;98425.19;6068784;28;96619;-65
2023/06/23 06:13:44;;;;;;;;;20.00;18.00;;;;;31.16;56.24;98418.25;6067746;28;96380;-65
2023/06/23 06:16:49;;;;;;;;;21.40;20.40;;;;;31.34;56.59;98416.59;6080809;28;96402;-65
2023/06/23 06:19:55;;;;;;;;;20.00;19.00;;;;;31.44;56.82;98408.81;6058167;28;96886;-65
2023/06/23 06:23:00;;;;;;;;;23.00;20.00;;;;;31.42;56.54;98426.69;6033010;28;97566;-64
2023/06/23 06:26:26;;;;;;;;;21.00;21.00;;;;;31.34;56.72;98438.91;6049880;28;96461;-65
2023/06/23 06:29:31;;;;;;;;;21.00;19.00;;;;;31.26;57.54;98487.28;6063825;28;96403;-64
2023/06/23 06:32:38;;;;;;;;;25.00;22.40;;;;;31.01;57.25;98579.78;6064513;28;96414;-63
2023/06/23 06:35:43;;;;;;;;;19.20;18.80;;;;;30.55;56.50;98588.69;6065941;28;96854;-65
2023/06/23 06:38:51;;;;;;;;;20.00;18.75;;;;;30.23;57.27;98564.00;6065113;28;96561;-64
2023/06/23 06:41:58;;;;;;;;;15.75;15.00;;;;;29.78;55.38;98581.88;6066713;28;96361;-64
2023/06/23 06:45:02;;;;;;;;;16.80;13.80;;;;;29.49;55.49;98613.59;6049865;28;96426;-65
2023/06/23 06:48:06;;;;;;;;;15.00;12.00;;;;;29.20;56.51;98595.28;6066230;28;96324;-64
2023/06/23 06:51:11;;;;;;;;;11.00;10.00;;;;;28.92;63.11;98575.00;6056553;28;96780;-64
2023/06/23 06:54:16;;;;;;;;;11.00;10.00;;;;;28.58;63.56;98567.13;6049996;28;97695;-64
2023/06/23 06:57:24;;;;;;;;;8.50;6.50;;;;;28.21;64.12;98556.03;6064871;28;96501;-64
2023/06/23 07:00:28;;;;;;;;;10.40;10.00;;;;;27.86;68.57;98489.13;6080836;28;96920;-64
2023/06/23 07:03:33;;;;;;;;;9.00;9.00;;;;;27.49;69.82;98438.41;6088175;28;97069;-64
2023/06/23 07:06:36;;;;;;;;;8.00;7.40;;;;;27.28;70.66;98498.53;6090084;28;96426;-64
2023/06/23 07:09:40;;;;;;;;;8.20;7.00;;;;;27.05;72.97;98492.56;6073315;28;96827;-64
2023/06/23 07:12:44;;;;;;;;;6.00;6.00;;;;;26.88;73.51;98472.56;6048529;28;96969;-64
2023/06/23 07:15:47;;;;;;;;;8.00;6.00;;;;;26.80;73.35;98473.41;6049131;28;96343;-64
2023/06/23 07:18:51;;;;;;;;;9.00;8.25;;;;;26.67;75.45;98459.50;6066583;28;96387;-64
2023/06/23 07:21:54;;;;;;;;;7.00;6.00;;;;;26.38;78.38;98442.19;6048519;28;98528;-64
2023/06/23 07:24:57;;;;;;;;;9.00;8.50;;;;;26.17;80.16;98444.88;6065548;28;96903;-64
2023/06/23 07:28:02;;;;;;;;;10.00;9.40;;;;;25.81;83.52;98481.28;6066089;28;96288;-64
2023/06/23 07:31:05;;;;;;;;;11.60;11.00;;;;;25.64;84.49;98515.31;6048004;28;96436;-64
2023/06/23 07:34:09;;;;;;;;;9.00;9.00;;;;;25.71;85.97;98537.69;6066343;28;96719;-64
2023/06/23 07:37:12;;;;;;;;;10.80;8.40;;;;;25.58;87.71;98555.25;6065931;28;96390;-64
2023/06/23 07:40:15;;;;;;;;;10.40;8.80;;;;;25.47;88.73;98551.19;6066330;28;96359;-64
2023/06/23 07:43:20;;;;;;;;;10.00;9.00;;;;;25.43;88.64;98553.78;6065544;28;96266;-64
2023/06/23 07:46:23;;;;;;;;;11.00;10.80;;;;;25.40;87.55;98546.19;6066424;28;96975;-63
2023/06/23 07:49:27;;;;;;;;;11.40;10.40;;;;;25.43;87.00;98534.47;6068310;28;96319;-64
2023/06/23 07:52:30;;;;;;;;;9.00;8.60;;;;;25.55;85.61;98531.09;6066196;28;96319;-63
2023/06/23 07:55:33;;;;;;;;;11.00;9.00;;;;;25.66;88.57;98548.91;6065073;28;98021;-63
2023/06/23 07:58:38;;;;;;;;;9.00;8.00;;;;;25.73;91.39;98545.66;6066171;28;96689;-64
2023/06/23 08:01:44;;;;;;;;;9.00;8.33;;;;;25.78;91.46;98557.31;6066086;28;96560;-64
2023/06/23 08:04:47;;;;;;;;;8.20;7.60;;;;;25.79;90.40;98566.44;6065299;28;96404;-64
2023/06/23 08:07:50;;;;;;;;;10.00;9.00;;;;;25.81;90.44;98570.47;6066044;28;96478;-64
2023/06/23 08:10:54;;;;;;;;;13.00;10.50;;;;;25.82;90.16;98574.84;6066151;28;96318;-64
2023/06/23 08:14:00;;;;;;;;;11.00;9.50;;;;;25.84;89.09;98585.59;6048357;28;96533;-64
2023/06/23 08:17:03;;;;;;;;;11.00;10.00;;;;;25.90;88.49;98577.94;6069086;28;96592;-64
2023/06/23 08:20:09;;;;;;;;;12.00;10.00;;;;;25.93;87.12;98558.75;6068005;28;96661;-64
2023/06/23 08:23:12;;;;;;;;;11.00;9.00;;;;;25.99;86.54;98560.19;6052066;28;98101;-64
2023/06/23 08:26:16;;;;;;;;;12.00;12.00;;;;;26.06;86.70;98568.75;6069246;28;96276;-64
2023/06/23 08:29:21;;;;;;;;;14.20;13.00;;;;;26.02;86.66;98544.91;6051399;28;98066;-63
2023/06/23 08:32:24;;;;;;;;;11.00;10.00;;;;;26.19;86.67;98564.97;6068459;28;96470;-63
2023/06/23 08:35:27;;;;;;;;;12.40;10.00;;;;;26.27;88.20;98561.41;6068398;28;98135;-64
2023/06/23 08:38:31;;;;;;;;;12.00;10.80;;;;;26.39;88.45;98577.25;6068356;28;96924;-64
2023/06/23 08:41:38;;;;;;;;;12.00;11.00;;;;;26.52;88.09;98576.22;6051158;28;96765;-64
2023/06/23 08:44:43;;;;;;;;;11.80;10.20;;;;;26.63;88.11;98563.63;6069543;28;96466;-64
2023/06/23 08:47:48;;;;;;;;;13.00;12.00;;;;;26.78;86.33;98558.69;6052199;28;96500;-64
2023/06/23 08:50:54;;;;;;;;;12.20;11.80;;;;;27.03;85.91;98574.28;6068003;28;96621;-64
2023/06/23 08:53:57;;;;;;;;;10.00;10.00;;;;;27.23;84.65;98567.13;6067745;28;96361;-63
2023/06/23 08:57:00;;;;;;;;;11.00;10.00;;;;;27.36;84.00;98569.63;6066383;28;97529;-63
2023/06/23 09:00:07;;;;;;;;;12.40;11.40;;;;;27.48;81.75;98577.97;6058725;28;99231;-63
2023/06/23 09:03:10;;;;;;;;;11.40;11.00;;;;;27.66;81.96;98588.94;6067408;28;96360;-64
2023/06/23 09:06:13;;;;;;;;;11.00;9.80;;;;;27.72;80.76;98577.28;6066825;28;96931;-64
2023/06/23 09:09:18;;;;;;;;;13.00;11.00;;;;;28.00;79.46;98594.88;6067883;28;96274;-62
2023/06/23 09:12:23;;;;;;;;;13.40;12.80;;;;;28.19;78.63;98601.91;6045492;28;96461;-63
2023/06/23 09:15:27;;;;;;;;;12.00;11.00;;;;;28.17;77.46;98585.59;6068507;28;96507;-63
2023/06/23 09:18:32;;;;;;;;;13.00;11.00;;;;;28.14;76.58;98578.00;6068952;28;96571;-64
2023/06/23 09:21:37;;;;;;;;;12.00;12.00;;;;;28.15;78.03;98570.50;6051917;28;96999;-64
2023/06/23 09:24:43;;;;;;;;;11.40;11.40;;;;;28.33;76.30;98569.09;6050593;28;97691;-64
2023/06/23 09:27:46;;;;;;;;;11.40;11.00;;;;;28.40;74.51;98583.19;6051130;28;96978;-64
2023/06/23 09:30:52;;;;;;;;;11.60;10.00;;;;;28.44;74.82;98584.91;6051195;28;99571;-64
2023/06/23 09:33:55;;;;;;;;;11.40;9.60;;;;;28.50;73.00;98576.38;6068887;28;96515;-64
2023/06/23 09:37:07;;;;;;;;;10.25;10.00;;;;;28.52;72.92;98572.09;6051375;28;96479;-64
2023/06/23 09:40:11;;;;;;;;;12.40;10.60;;;;;28.62;71.33;98576.38;6068442;28;96903;-64
2023/06/23 09:43:16;;;;;;;;;10.00;9.00;;;;;28.67;71.84;98585.28;6049348;28;96661;-63
2023/06/23 09:46:22;;;;;;;;;9.80;9.40;;;;;28.71;73.06;98580.69;6064202;28;96432;-63
2023/06/23 09:49:26;;;;;;;;;12.00;11.00;;;;;28.69;71.63;98584.91;6068269;28;96445;-63
2023/06/23 09:52:29;;;;;;;;;10.33;9.00;;;;;28.53;69.81;98589.56;6066689;28;96441;-63
2023/06/23 09:55:32;;;;;;;;;9.40;8.00;;;;;28.52;72.25;98583.19;6068096;28;96325;-64
2023/06/23 09:58:37;;;;;;;;;10.00;9.00;;;;;28.59;72.64;98577.09;6068227;28;96418;-64
2023/06/23 10:01:43;;;;;;;;;10.40;9.40;;;;;28.79;73.60;98579.72;6049241;28;98538;-64
2023/06/23 10:04:48;;;;;;;;;10.20;9.20;;;;;28.81;69.25;98590.50;6049391;28;97619;-64
2023/06/23 10:08:06;;;;;;;;;11.00;9.00;;;;;28.97;71.42;98585.03;6062101;28;96277;-64
2023/06/23 10:11:09;;;;;;;;;9.00;8.00;;;;;29.20;70.90;98586.13;6067499;28;96404;-64
2023/06/23 10:14:14;;;;;;;;;12.20;9.20;;;;;29.53;70.15;98585.91;6067783;28;96318;-64
2023/06/23 10:17:20;;;;;;;;;9.80;9.00;;;;;29.87;68.31;98578.91;6067879;28;96409;-64
2023/06/23 10:20:23;;;;;;;;;10.00;10.00;;;;;30.18;65.56;98583.75;6067845;28;96328;-64
2023/06/23 10:23:29;;;;;;;;;11.33;10.00;;;;;30.38;63.97;98585.44;6066826;28;96366;-64
2023/06/23 10:26:35;;;;;;;;;10.75;10.75;;;;;30.55;64.90;98585.09;6067683;28;96307;-64
2023/06/23 10:29:41;;;;;;;;;11.00;9.40;;;;;30.69;62.67;98577.06;6066107;28;96468;-64
2023/06/23 10:32:51;;;;;;;;;10.80;9.40;;;;;30.97;62.74;98569.41;6049208;28;97033;-64
2023/06/23 10:35:55;;;;;;;;;10.40;9.40;;;;;31.25;62.14;98576.78;6066765;28;96277;-66
2023/06/23 10:39:04;;;;;;;;;11.00;9.00;;;;;31.42;60.76;98563.22;6065100;28;96381;-64
2023/06/23 10:42:12;;;;;;;;;9.40;9.40;;;;;31.58;59.91;98560.38;6049330;28;96728;-64
2023/06/23 10:45:15;;;;;;;;;11.00;9.00;;;;;31.64;59.53;98566.47;6048784;28;96659;-64
2023/06/23 10:48:20;;;;;;;;;10.80;10.00;;;;;31.63;58.87;98576.00;6048690;28;97315;-64
2023/06/23 10:51:24;;;;;;;;;10.00;9.00;;;;;31.48;59.91;98579.63;6064544;28;96283;-64
2023/06/23 10:54:30;;;;;;;;;9.50;9.50;;;;;31.42;60.18;98586.69;6064062;28;96516;-64
2023/06/23 10:57:33;;;;;;;;;13.00;11.00;;;;;31.31;60.26;98584.47;6065190;28;96344;-65
2023/06/23 11:00:37;;;;;;;;;12.60;10.00;;;;;31.14;60.79;98584.91;6047722;28;97373;-64
2023/06/23 11:03:41;;;;;;;;;11.00;9.80;;;;;30.90;60.97;98585.94;6065338;28;96660;-64
2023/06/23 11:06:45;;;;;;;;;13.50;13.00;;;;;30.75;63.79;98583.19;6066681;28;96835;-65
2023/06/23 11:09:54;;;;;;;;;13.00;11.80;;;;;30.67;63.86;98586.97;6066153;28;97237;-65
2023/06/23 11:12:57;;;;;;;;;12.67;11.67;;;;;30.59;64.30;98574.06;6066783;28;96368;-64
2023/06/23 11:16:06;;;;;;;;;12.25;11.25;;;;;30.48;64.59;98571.84;6066304;28;96340;-65
2023/06/23 11:19:10;;;;;;;;;11.25;9.00;;;;;30.40;66.00;98558.06;6066515;28;96661;-65
2023/06/23 11:22:21;;;;;;;;;9.00;9.00;;;;;30.35;65.81;98545.25;6048634;28;99220;-64
2023/06/23 11:25:27;;;;;;;;;15.00;14.00;;;;;30.16;64.68;98536.00;6032907;28;96885;-64
2023/06/23 11:28:35;;;;;;;;;13.75;13.00;;;;;30.16;65.58;98539.59;6065976;28;96458;-65
2023/06/23 11:32:03;;;;;;;;;13.20;11.80;;;;;30.06;66.67;98540.94;6066030;28;96352;-64
2023/06/23 11:35:09;;;;;;;;;13.00;12.00;;;;;30.01;66.63;98537.63;6031076;28;96938;-64
2023/06/23 11:38:14;;;;;;;;;13.00;12.00;;;;;29.87;67.47;98546.38;6048840;28;96259;-64
2023/06/23 11:41:25;;;;;;;;;16.00;14.50;;;;;29.83;67.36;98564.94;6065864;28;96394;-64
2023/06/23 11:44:29;;;;;;;;;15.80;15.40;;;;;29.58;69.39;98574.56;6064552;28;96619;-64
2023/06/23 11:47:33;;;;;;;;;15.00;13.00;;;;;29.55;68.91;98580.81;6065253;28;96781;-64
2023/06/23 11:50:42;;;;;;;;;14.00;13.00;;;;;29.46;70.51;98560.72;6067952;28;98047;-64
2023/06/23 11:53:46;;;;;;;;;12.75;12.00;;;;;29.34;71.53;98525.47;6069793;28;96311;-64
2023/06/23 11:56:52;;;;;;;;;14.00;12.00;;;;;29.30;71.48;98516.22;6070087;28;96287;-64
2023/06/23 11:59:56;;;;;;;;;13.40;12.20;;;;;29.22;72.18;98531.84;6069297;28;96812;-64
2023/06/23 12:02:59;;;;;;;;;14.00;13.00;;;;;29.17;73.37;98542.44;6069592;28;96545;-64
2023/06/23 12:06:04;;;;;;;;;14.00;13.00;;;;;29.11;73.30;98558.50;6069323;28;96747;-64
2023/06/23 12:09:08;;;;;;;;;12.75;11.25;;;;;29.06;73.93;98572.63;6051643;28;96715;-64
2023/06/23 12:12:13;;;;;;;;;15.00;14.00;;;;;28.94;74.34;98596.81;6050736;28;97772;-64
2023/06/23 12:15:22;;;;;;;;;16.50;14.00;;;;;28.87;75.29;98583.56;6051435;28;99099;-64
2023/06/23 12:18:25;;;;;;;;;13.00;12.00;;;;;28.80;76.60;98556.38;6068130;28;96261;-64
2023/06/23 12:21:30;;;;;;;;;16.00;13.00;;;;;28.78;77.43;98538.47;6068714;28;96422;-63
2023/06/23 12:24:33;;;;;;;;;13.80;13.00;;;;;28.71;77.36;98530.75;6068454;28;97581;-63
2023/06/23 12:27:37;;;;;;;;;16.75;15.75;;;;;28.69;77.57;98519.13;6052759;28;96421;-65
2023/06/23 12:30:43;;;;;;;;;14.00;13.00;;;;;28.63;77.95;98528.06;6036342;28;97535;-64
2023/06/23 12:33:46;;;;;;;;;17.00;16.00;;;;;28.69;78.27;98541.34;6067836;28;96560;-64
2023/06/23 12:36:51;;;;;;;;;16.00;13.75;;;;;28.69;77.96;98544.09;6068277;28;96601;-64
2023/06/23 12:39:54;;;;;;;;;16.40;13.40;;;;;28.67;77.95;98529.78;6066937;28;96854;-64
2023/06/23 12:42:59;;;;;;;;;15.60;14.00;;;;;28.67;77.40;98534.53;6065767;28;96397;-64
2023/06/23 12:46:03;;;;;;;;;16.00;14.00;;;;;28.67;77.32;98534.53;6068794;28;96910;-64
2023/06/23 12:49:10;;;;;;;;;16.00;14.00;;;;;28.60;77.91;98551.75;6035402;28;97000;-64
2023/06/23 12:52:15;;;;;;;;;16.00;13.40;;;;;28.55;79.33;98553.94;6069269;28;96770;-64
2023/06/23 12:55:19;;;;;;;;;18.00;16.00;;;;;28.52;79.60;98569.34;6066498;28;96525;-64
2023/06/23 12:58:22;;;;;;;;;18.00;15.80;;;;;28.52;79.21;98571.28;6045208;28;97504;-64
2023/06/23 13:01:25;;;;;;;;;19.75;16.00;;;;;28.55;79.01;98553.94;6058912;28;98732;-64
2023/06/23 13:04:29;;;;;;;;;14.00;13.50;;;;;28.62;78.98;98534.78;6066817;28;96881;-64
2023/06/23 13:07:35;;;;;;;;;15.00;14.00;;;;;28.64;77.62;98529.66;6067186;28;96436;-64
2023/06/23 13:10:40;;;;;;;;;15.80;15.20;;;;;28.70;78.23;98534.63;6048441;28;96956;-64
2023/06/23 13:13:44;;;;;;;;;15.20;15.00;;;;;28.62;78.91;98543.09;6068641;28;96263;-64
2023/06/23 13:16:47;;;;;;;;;20.80;19.20;;;;;28.59;80.07;98557.66;6068231;28;96604;-64
2023/06/23 13:19:50;;;;;;;;;15.33;14.33;;;;;28.51;81.04;98555.81;6065811;28;97464;-64
2023/06/23 13:22:55;;;;;;;;;15.40;14.00;;;;;28.56;79.73;98545.28;6050215;28;96834;-64
2023/06/23 13:25:58;;;;;;;;;15.33;15.00;;;;;28.66;79.25;98564.22;6032527;28;96703;-63
2023/06/23 13:29:02;;;;;;;;;16.00;15.40;;;;;28.48;80.30;98559.28;6067434;28;96836;-64
2023/06/23 13:32:07;;;;;;;;;15.00;12.80;;;;;28.41;81.15;98570.94;6066927;28;96466;-64
2023/06/23 13:35:11;;;;;;;;;16.50;15.00;;;;;28.47;81.44;98577.06;6067425;28;96792;-64
2023/06/23 13:38:15;;;;;;;;;21.75;19.75;;;;;28.55;81.45;98587.22;6063466;28;96459;-64
2023/06/23 13:41:19;;;;;;;;;15.80;15.00;;;;;28.43;81.40;98604.69;6065435;28;96768;-64
2023/06/23 13:44:22;;;;;;;;;16.50;16.25;;;;;28.51;82.12;98619.59;6067237;28;97616;-64
2023/06/23 13:47:26;;;;;;;;;17.00;15.50;;;;;28.56;82.17;98631.28;6050663;28;96298;-64
2023/06/23 13:50:29;;;;;;;;;18.75;15.00;;;;;28.75;80.84;98630.72;6067849;28;96311;-64
2023/06/23 13:53:38;;;;;;;;;16.40;15.40;;;;;28.83;80.01;98632.59;6066752;28;96347;-64
2023/06/23 13:56:41;;;;;;;;;16.00;14.00;;;;;28.81;79.62;98621.00;6053291;28;96355;-64
2023/06/23 13:59:45;;;;;;;;;19.00;16.50;;;;;28.69;80.18;98618.19;6067793;28;96303;-66
2023/06/23 14:02:49;;;;;;;;;15.60;15.00;;;;;28.78;79.92;98614.19;6067897;28;96605;-63
2023/06/23 14:05:52;;;;;;;;;23.00;20.00;;;;;28.78;79.48;98596.75;6066824;28;96282;-65
2023/06/23 14:08:59;;;;;;;;;24.40;21.00;;;;;28.83;78.61;98594.53;6067430;28;96566;-65
2023/06/23 14:12:04;;;;;;;;;22.00;18.00;;;;;28.96;78.20;98581.44;6049130;28;98391;-65
2023/06/23 14:15:08;;;;;;;;;20.50;17.50;;;;;29.13;78.13;98574.78;6066250;28;96565;-65
2023/06/23 14:18:11;;;;;;;;;20.00;18.50;;;;;29.25;76.47;98575.59;6067444;28;96498;-65